createdAt,value
2023-09-15T00:01:48.315Z,83.50
2023-09-15T00:04:16.611Z,82.88
2023-09-15T00:06:48.156Z,82.38
2023-09-15T00:09:16.904Z,81.07
2023-09-15T00:11:48.795Z,80.76
2023-09-15T00:14:17.900Z,81.12
2023-09-15T00:16:46.888Z,81.13
2023-09-15T00:19:17.898Z,81.09
2023-09-15T00:21:49.625Z,81.00
2023-09-15T00:24:17.886Z,80.70
2023-09-15T00:26:46.025Z,81.25
2023-09-15T00:29:14.300Z,80.63
2023-09-15T00:31:42.453Z,81.95
2023-09-15T00:34:10.716Z,82.29
2023-09-15T00:36:38.925Z,82.05
2023-09-15T00:39:08.442Z,81.14
2023-09-15T00:41:36.533Z,81.05
2023-09-15T00:44:05.477Z,81.55
2023-09-15T00:46:34.070Z,82.04
2023-09-15T00:49:03.224Z,82.31
2023-09-15T00:51:33.307Z,83.28
2023-09-15T00:54:01.980Z,82.82
2023-09-15T00:56:31.833Z,83.21
2023-09-15T00:59:01.747Z,83.20
2023-09-15T01:01:30.354Z,83.14
2023-09-15T01:03:59.159Z,83.05
2023-09-15T01:06:29.014Z,81.88
2023-09-15T01:08:57.375Z,81.50
2023-09-15T01:11:27.723Z,82.43
2023-09-15T01:13:57.329Z,82.27
2023-09-15T01:16:34.010Z,82.42
2023-09-15T01:19:19.704Z,81.97
2023-09-15T01:22:13.325Z,82.62
2023-09-15T01:25:10.948Z,82.72
2023-09-15T01:27:56.331Z,81.94
2023-09-15T01:30:27.620Z,82.25
2023-09-15T01:32:59.108Z,81.85
2023-09-15T01:35:27.599Z,82.86
2023-09-15T01:37:55.657Z,83.05
2023-09-15T01:40:23.891Z,83.25
2023-09-15T01:42:55.949Z,83.19
2023-09-15T01:45:27.631Z,83.50
2023-09-15T01:47:57.556Z,83.56
2023-09-15T01:50:27.530Z,83.85
2023-09-15T01:52:56.817Z,83.66
2023-09-15T01:55:26.471Z,83.74
2023-09-15T01:57:54.689Z,82.56
2023-09-15T02:00:23.427Z,82.38
2023-09-15T02:02:53.047Z,82.18
2023-09-15T02:05:25.635Z,82.77
2023-09-15T02:07:55.143Z,84.00
2023-09-15T02:10:23.290Z,83.77
2023-09-15T02:12:51.802Z,82.73
2023-09-15T02:15:20.461Z,83.71
2023-09-15T02:17:52.889Z,83.37
2023-09-15T02:20:22.068Z,83.20
2023-09-15T02:22:50.790Z,83.16
2023-09-15T02:25:19.055Z,84.13
2023-09-15T02:27:47.348Z,83.62
2023-09-15T02:30:15.683Z,82.82
2023-09-15T02:32:44.717Z,82.70
2023-09-15T02:35:14.407Z,82.33
2023-09-15T02:37:42.474Z,82.06
2023-09-15T02:40:11.158Z,81.72
2023-09-15T02:42:39.405Z,82.11
2023-09-15T02:45:08.735Z,82.64
2023-09-15T02:47:36.880Z,82.01
2023-09-15T02:50:05.763Z,82.36
2023-09-15T02:52:36.012Z,82.91
2023-09-15T02:55:06.301Z,82.94
2023-09-15T02:57:34.509Z,84.13
2023-09-15T03:00:09.214Z,84.01
2023-09-15T03:02:37.851Z,83.23
2023-09-15T03:05:07.133Z,84.59
2023-09-15T03:07:40.607Z,84.17
2023-09-15T03:10:12.391Z,82.87
2023-09-15T03:12:40.719Z,83.43
2023-09-15T03:15:09.708Z,83.53
2023-09-15T03:17:38.950Z,84.16
2023-09-15T03:20:14.708Z,84.33
2023-09-15T03:22:46.005Z,84.32
2023-09-15T03:25:15.465Z,83.92
2023-09-15T03:27:43.705Z,84.71
2023-09-15T03:30:12.819Z,84.99
2023-09-15T03:32:41.050Z,84.89
2023-09-15T03:35:10.076Z,83.72
2023-09-15T03:37:39.219Z,83.73
2023-09-15T03:40:12.987Z,83.23
2023-09-15T03:42:41.714Z,83.00
2023-09-15T03:45:10.795Z,83.76
2023-09-15T03:47:39.279Z,84.03
2023-09-15T03:50:10.696Z,83.16
2023-09-15T03:52:39.324Z,83.55
2023-09-15T03:55:10.089Z,84.04
2023-09-15T03:57:38.759Z,83.41
2023-09-15T04:00:12.589Z,82.83
2023-09-15T04:02:41.424Z,81.98
2023-09-15T04:05:10.041Z,82.17
2023-09-15T04:07:39.360Z,81.84
2023-09-15T04:10:08.521Z,80.87
2023-09-15T04:12:39.171Z,80.77
2023-09-15T04:15:08.374Z,81.23
2023-09-15T04:17:36.438Z,82.40
2023-09-15T04:20:09.986Z,82.69
2023-09-15T04:22:39.605Z,82.40
2023-09-15T04:25:10.121Z,83.14
2023-09-15T04:27:39.886Z,82.85
2023-09-15T04:30:09.391Z,81.66
2023-09-15T04:32:43.503Z,82.34
2023-09-15T04:35:14.111Z,82.39
2023-09-15T04:37:42.536Z,83.42
2023-09-15T04:40:12.634Z,83.65
2023-09-15T04:42:42.196Z,83.11
2023-09-15T04:45:11.422Z,83.62
2023-09-15T04:47:41.995Z,83.54
2023-09-15T04:50:13.564Z,83.86
2023-09-15T04:52:42.842Z,82.72
2023-09-15T04:55:11.177Z,82.54
2023-09-15T04:57:39.656Z,82.64
2023-09-15T05:00:14.271Z,82.82
2023-09-15T05:02:46.288Z,82.83
2023-09-15T05:05:16.603Z,84.01
2023-09-15T05:07:44.915Z,83.80
2023-09-15T05:10:13.193Z,83.49
2023-09-15T05:12:41.788Z,84.62
2023-09-15T05:15:12.735Z,83.52
2023-09-15T05:17:42.858Z,83.53
2023-09-15T05:20:11.633Z,83.36
2023-09-15T05:22:40.176Z,83.59
2023-09-15T05:25:09.354Z,82.94
2023-09-15T05:27:38.241Z,84.21
2023-09-15T05:30:07.993Z,83.76
2023-09-15T05:32:39.943Z,84.14
2023-09-15T05:35:10.832Z,84.87
2023-09-15T05:37:39.046Z,84.89
2023-09-15T05:40:09.358Z,85.39
2023-09-15T05:42:37.828Z,84.88
2023-09-15T05:45:06.923Z,84.93
2023-09-15T05:47:35.544Z,84.77
2023-09-15T05:50:05.857Z,84.63
2023-09-15T05:52:34.535Z,84.45
2023-09-15T05:55:02.984Z,84.47
2023-09-15T05:57:32.068Z,84.39
2023-09-15T06:00:00.453Z,83.58
2023-09-15T06:02:29.967Z,83.33
2023-09-15T06:04:58.162Z,84.09
2023-09-15T06:07:27.688Z,84.44
2023-09-15T06:09:56.192Z,84.56
2023-09-15T06:12:24.402Z,85.48
2023-09-15T06:14:52.460Z,85.02
2023-09-15T06:17:20.562Z,85.08
2023-09-15T06:19:48.630Z,85.11
2023-09-15T06:22:16.773Z,84.89
2023-09-15T06:24:46.237Z,84.56
2023-09-15T06:27:14.284Z,84.31
2023-09-15T06:29:45.149Z,84.17
2023-09-15T06:32:13.646Z,83.42
2023-09-15T06:34:41.788Z,83.47
2023-09-15T06:37:10.337Z,83.03
2023-09-15T06:39:38.587Z,82.15
2023-09-15T06:42:09.956Z,82.48
2023-09-15T06:44:42.445Z,82.19
2023-09-15T06:47:12.324Z,81.50
2023-09-15T06:49:40.377Z,80.37
2023-09-15T06:52:09.045Z,80.28
2023-09-15T06:54:37.210Z,78.55
2023-09-15T06:57:06.077Z,78.70
2023-09-15T06:59:36.809Z,78.78
2023-09-15T07:02:08.212Z,72.55
2023-09-15T07:04:36.482Z,51.51
2023-09-15T07:07:04.718Z,41.79
2023-09-15T07:09:32.880Z,34.41
2023-09-15T07:12:00.952Z,29.49
2023-09-15T07:14:29.165Z,30.78
2023-09-15T07:16:58.913Z,28.98
2023-09-15T07:19:27.201Z,25.79
2023-09-15T07:21:55.483Z,26.35
2023-09-15T07:24:23.999Z,25.65
2023-09-15T07:26:52.537Z,26.69
2023-09-15T07:29:20.679Z,25.70
2023-09-15T07:31:48.920Z,27.10
2023-09-15T07:34:22.745Z,25.80
2023-09-15T07:36:52.218Z,25.47
2023-09-15T07:39:20.496Z,23.88
2023-09-15T07:41:48.840Z,23.56
2023-09-15T07:44:17.109Z,23.66
2023-09-15T07:46:45.355Z,27.05
2023-09-15T07:49:13.499Z,27.25
2023-09-15T07:51:43.140Z,30.33
2023-09-15T07:54:11.233Z,28.40
2023-09-15T07:56:39.498Z,26.35
2023-09-15T07:59:09.037Z,24.50
2023-09-15T08:01:37.363Z,25.03
2023-09-15T08:04:06.992Z,24.82
2023-09-15T08:06:35.259Z,25.61
2023-09-15T08:09:06.724Z,25.84
2023-09-15T08:11:38.722Z,26.28
2023-09-15T08:14:06.950Z,26.48
2023-09-15T08:16:35.132Z,24.50
2023-09-15T08:19:03.527Z,24.51
2023-09-15T08:21:31.837Z,28.45
2023-09-15T08:23:59.935Z,26.02
2023-09-15T08:26:38.964Z,27.74
2023-09-15T08:29:12.708Z,32.65
2023-09-15T08:31:41.180Z,30.88
2023-09-15T08:34:09.716Z,34.13
2023-09-15T08:36:37.836Z,33.03
2023-09-15T08:39:06.886Z,33.54
2023-09-15T08:41:41.501Z,37.22
2023-09-15T08:44:11.662Z,36.01
2023-09-15T08:46:41.867Z,37.14
2023-09-15T08:49:11.316Z,37.32
2023-09-15T08:51:40.425Z,36.57
2023-09-15T08:54:09.027Z,35.55
2023-09-15T08:56:38.918Z,33.90
2023-09-15T08:59:10.146Z,30.75
2023-09-15T09:01:39.143Z,32.57
2023-09-15T09:04:07.617Z,34.49
2023-09-15T09:06:37.124Z,33.14
2023-09-15T09:09:05.891Z,30.53
2023-09-15T09:11:34.436Z,29.04
2023-09-15T09:14:06.791Z,29.08
2023-09-15T09:16:35.538Z,30.57
2023-09-15T09:19:05.238Z,32.33
2023-09-15T09:21:35.568Z,32.84
2023-09-15T09:24:04.075Z,33.97
2023-09-15T09:26:32.434Z,32.50
2023-09-15T09:29:00.715Z,32.68
2023-09-15T09:31:31.807Z,33.42
2023-09-15T09:34:01.069Z,32.67
2023-09-15T09:36:29.613Z,29.90
2023-09-15T09:38:57.996Z,30.18
2023-09-15T09:41:29.846Z,30.13
2023-09-15T09:43:59.160Z,34.11
2023-09-15T09:46:27.289Z,34.47
2023-09-15T09:48:57.612Z,31.60
2023-09-15T09:51:25.927Z,31.43
2023-09-15T09:53:56.558Z,33.54
2023-09-15T09:56:25.365Z,31.31
2023-09-15T09:58:53.473Z,32.17
2023-09-15T10:01:22.014Z,32.47
2023-09-15T10:03:51.067Z,32.03
2023-09-15T10:06:21.542Z,34.09
2023-09-15T10:08:50.436Z,31.93
2023-09-15T10:11:19.461Z,33.93
2023-09-15T10:13:49.157Z,37.92
2023-09-15T10:16:17.679Z,36.33
2023-09-15T10:18:47.278Z,34.40
2023-09-15T10:21:16.907Z,35.28
2023-09-15T10:23:46.696Z,38.01
2023-09-15T10:26:14.868Z,39.69
2023-09-15T10:28:51.111Z,38.83
2023-09-15T10:31:19.696Z,39.85
2023-09-15T10:33:49.199Z,39.16
2023-09-15T10:36:18.167Z,36.29
2023-09-15T10:38:49.251Z,37.76
2023-09-15T10:41:31.049Z,37.12
2023-09-15T10:43:59.324Z,35.30
2023-09-15T10:46:38.240Z,35.43
2023-09-15T10:49:17.296Z,35.21
2023-09-15T10:51:56.579Z,36.31
2023-09-15T10:54:28.417Z,36.39
2023-09-15T10:56:56.647Z,36.27
2023-09-15T10:59:24.898Z,34.52
2023-09-15T11:01:53.382Z,38.05
2023-09-15T11:04:23.061Z,40.76
2023-09-15T11:06:52.684Z,39.13
2023-09-15T11:09:22.194Z,36.70
2023-09-15T11:11:53.074Z,39.07
2023-09-15T11:14:23.945Z,41.56
2023-09-15T11:16:55.441Z,41.16
2023-09-15T11:19:27.243Z,41.44
2023-09-15T11:21:55.456Z,44.49
2023-09-15T11:24:24.084Z,43.77
2023-09-15T11:26:54.794Z,44.13
2023-09-15T11:29:27.162Z,44.71
2023-09-15T11:31:57.751Z,44.26
2023-09-15T11:34:26.491Z,44.07
2023-09-15T11:37:01.015Z,45.08
2023-09-15T11:39:30.891Z,46.12
2023-09-15T11:42:02.534Z,46.47
2023-09-15T11:44:32.231Z,45.85
2023-09-15T11:47:03.234Z,46.39
2023-09-15T11:49:32.567Z,47.64
2023-09-15T11:52:01.321Z,41.84
2023-09-15T11:54:30.054Z,40.84
2023-09-15T11:56:58.871Z,39.42
2023-09-15T11:59:29.770Z,37.67
2023-09-15T12:02:01.178Z,40.91
2023-09-15T12:04:29.955Z,44.73
2023-09-15T12:06:58.405Z,44.89
2023-09-15T12:09:27.006Z,46.74
2023-09-15T12:11:55.276Z,44.54
2023-09-15T12:14:25.952Z,42.58
2023-09-15T12:16:58.430Z,40.72
2023-09-15T12:19:29.174Z,41.53
2023-09-15T12:22:00.637Z,40.41
2023-09-15T12:24:30.015Z,40.18
2023-09-15T12:27:00.644Z,39.34
2023-09-15T12:29:29.790Z,38.95
2023-09-15T12:31:59.386Z,40.98
2023-09-15T12:34:29.142Z,39.33
2023-09-15T12:36:57.333Z,39.05
2023-09-15T12:39:25.677Z,39.64
2023-09-15T12:42:13.759Z,40.69
2023-09-15T12:44:43.785Z,39.59
2023-09-15T12:47:13.430Z,38.41
2023-09-15T12:49:42.651Z,39.81
2023-09-15T12:52:11.483Z,39.48
2023-09-15T12:54:39.898Z,39.13
2023-09-15T12:57:08.627Z,40.14
2023-09-15T12:59:36.878Z,39.46
2023-09-15T13:02:05.682Z,37.74
2023-09-15T13:04:36.207Z,38.76
2023-09-15T13:07:05.091Z,40.17
2023-09-15T13:09:33.787Z,41.18
2023-09-15T13:12:02.877Z,40.14
2023-09-15T13:14:31.479Z,39.05
2023-09-15T13:17:01.007Z,38.64
2023-09-15T13:19:30.622Z,38.54
2023-09-15T13:22:00.503Z,38.66
2023-09-15T13:24:29.217Z,40.07
2023-09-15T13:26:57.484Z,40.10
2023-09-15T13:29:26.818Z,41.80
2023-09-15T13:31:55.324Z,40.85
2023-09-15T13:34:23.566Z,40.15
2023-09-15T13:36:51.759Z,42.16
2023-09-15T13:39:21.380Z,42.78
2023-09-15T13:41:50.280Z,44.03
2023-09-15T13:44:18.731Z,43.26
2023-09-15T13:46:47.126Z,42.68
2023-09-15T13:49:15.302Z,42.90
2023-09-15T13:51:43.801Z,44.13
2023-09-15T13:54:12.473Z,43.80
2023-09-15T13:56:42.180Z,44.58
2023-09-15T13:59:10.391Z,46.10
2023-09-15T14:01:41.305Z,45.89
2023-09-15T14:04:11.545Z,46.54
2023-09-15T14:06:40.471Z,47.16
2023-09-15T14:09:19.432Z,47.65
2023-09-15T14:11:48.946Z,46.40
2023-09-15T14:14:17.138Z,45.84
2023-09-15T14:16:45.312Z,45.23
2023-09-15T14:19:13.674Z,44.38
2023-09-15T14:21:42.098Z,44.88
2023-09-15T14:24:11.819Z,46.44
2023-09-15T14:26:40.346Z,45.58
2023-09-15T14:29:09.980Z,45.78
2023-09-15T14:31:38.376Z,46.00
2023-09-15T14:34:06.596Z,44.39
2023-09-15T14:36:34.752Z,44.84
2023-09-15T14:39:07.996Z,44.42
2023-09-15T14:41:37.241Z,44.53
2023-09-15T14:44:09.582Z,45.09
2023-09-15T14:46:37.825Z,46.39
2023-09-15T14:49:05.997Z,47.06
2023-09-15T14:51:36.968Z,48.40
2023-09-15T14:54:05.749Z,49.13
2023-09-15T14:56:33.893Z,50.49
2023-09-15T14:59:02.004Z,49.38
2023-09-15T15:01:31.924Z,50.65
2023-09-15T15:04:00.247Z,49.44
2023-09-15T15:06:28.662Z,48.29
2023-09-15T15:08:56.882Z,46.33
2023-09-15T15:11:25.042Z,44.01
2023-09-15T15:13:53.475Z,45.79
2023-09-15T15:16:22.090Z,43.54
2023-09-15T15:18:57.148Z,41.88
2023-09-15T15:21:31.542Z,42.77
2023-09-15T15:24:00.073Z,45.45
2023-09-15T15:26:28.565Z,44.74
2023-09-15T15:28:56.775Z,43.81
2023-09-15T15:31:24.994Z,44.80
2023-09-15T15:33:54.764Z,43.55
2023-09-15T15:36:24.056Z,42.51
2023-09-15T15:38:52.277Z,43.77
2023-09-15T15:41:20.428Z,45.60
2023-09-15T15:43:48.931Z,44.64
2023-09-15T15:46:18.283Z,44.35
2023-09-15T15:48:46.871Z,46.07
2023-09-15T15:51:16.821Z,48.74
2023-09-15T15:53:45.082Z,49.52
2023-09-15T15:56:13.629Z,50.08
2023-09-15T15:58:42.891Z,51.90
2023-09-15T16:01:12.221Z,51.97
2023-09-15T16:03:40.464Z,52.32
2023-09-15T16:06:08.775Z,52.29
2023-09-15T16:08:38.649Z,53.11
2023-09-15T16:11:07.427Z,53.21
2023-09-15T16:13:38.195Z,53.39
2023-09-15T16:16:06.917Z,53.39
2023-09-15T16:18:35.498Z,54.25
2023-09-15T16:21:04.699Z,54.53
2023-09-15T16:23:32.876Z,54.98
2023-09-15T16:26:03.786Z,55.89
2023-09-15T16:28:32.949Z,56.52
2023-09-15T16:31:01.246Z,57.12
2023-09-15T16:33:29.561Z,57.58
2023-09-15T16:36:02.530Z,57.52
2023-09-15T16:38:31.578Z,58.22
2023-09-15T16:41:01.421Z,58.87
2023-09-15T16:43:32.992Z,58.92
2023-09-15T16:46:01.701Z,59.58
2023-09-15T16:48:31.444Z,59.75
2023-09-15T16:51:00.526Z,60.20
2023-09-15T16:53:28.972Z,60.98
2023-09-15T16:55:57.948Z,61.67
2023-09-15T16:58:26.470Z,62.05
2023-09-15T17:00:58.115Z,62.52
2023-09-15T17:03:28.743Z,62.97
2023-09-15T17:05:56.968Z,63.67
2023-09-15T17:08:25.397Z,64.43
2023-09-15T17:10:54.095Z,64.45
2023-09-15T17:13:22.438Z,65.73
2023-09-15T17:15:51.219Z,66.46
2023-09-15T17:18:21.388Z,66.38
2023-09-15T17:20:49.534Z,66.93
2023-09-15T17:23:18.294Z,67.24
2023-09-15T17:25:46.788Z,67.02
2023-09-15T17:28:17.030Z,66.85
2023-09-15T17:30:45.732Z,67.16
2023-09-15T17:33:14.445Z,67.49
2023-09-15T17:35:44.448Z,68.18
2023-09-15T17:38:12.581Z,68.26
2023-09-15T17:40:40.827Z,68.78
2023-09-15T17:43:09.616Z,68.68
2023-09-15T17:45:38.067Z,68.96
2023-09-15T17:48:06.662Z,69.30
2023-09-15T17:50:35.498Z,69.64
2023-09-15T17:53:05.636Z,69.88
2023-09-15T17:55:33.800Z,70.16
2023-09-15T17:58:02.445Z,70.94
2023-09-15T18:00:30.703Z,71.10
2023-09-15T18:02:59.911Z,71.47
2023-09-15T18:05:28.508Z,71.96
2023-09-15T18:07:56.878Z,71.87
2023-09-15T18:10:26.886Z,72.79
2023-09-15T18:12:55.339Z,73.46
2023-09-15T18:15:23.764Z,73.82
2023-09-15T18:17:52.313Z,74.24
2023-09-15T18:20:20.645Z,74.73
2023-09-15T18:22:49.295Z,74.73
2023-09-15T18:25:18.311Z,74.97
2023-09-15T18:27:48.264Z,75.53
2023-09-15T18:30:16.758Z,75.39
2023-09-15T18:32:46.673Z,75.62
2023-09-15T18:35:15.504Z,75.69
2023-09-15T18:37:44.198Z,75.61
2023-09-15T18:40:13.162Z,75.89
2023-09-15T18:42:43.242Z,76.90
2023-09-15T18:45:13.185Z,76.74
2023-09-15T18:47:41.730Z,76.45
2023-09-15T18:50:12.027Z,75.89
2023-09-15T18:52:40.282Z,75.77
2023-09-15T18:55:08.980Z,76.43
2023-09-15T18:57:38.874Z,76.42
2023-09-15T19:00:08.469Z,76.74
2023-09-15T19:02:39.184Z,76.76
2023-09-15T19:05:09.315Z,77.33
2023-09-15T19:07:37.798Z,77.31
2023-09-15T19:10:07.035Z,77.61
2023-09-15T19:12:35.392Z,77.04
2023-09-15T19:15:04.456Z,76.79
2023-09-15T19:17:33.248Z,77.18
2023-09-15T19:20:04.058Z,78.07
2023-09-15T19:22:33.324Z,78.46
2023-09-15T19:25:01.500Z,78.37
2023-09-15T19:27:29.813Z,78.41
2023-09-15T19:30:00.154Z,78.65
2023-09-15T19:32:29.472Z,78.63
2023-09-15T19:34:58.014Z,79.01
2023-09-15T19:37:28.332Z,78.75
2023-09-15T19:39:57.253Z,78.72
2023-09-15T19:42:25.705Z,79.43
2023-09-15T19:44:56.186Z,79.51
2023-09-15T19:47:24.937Z,79.46
2023-09-15T19:49:53.702Z,78.61
2023-09-15T19:52:23.833Z,78.89
2023-09-15T19:54:54.988Z,79.50
2023-09-15T19:57:24.257Z,79.99
2023-09-15T19:59:52.727Z,79.92
2023-09-15T20:02:21.612Z,79.82
2023-09-15T20:04:50.421Z,79.75
2023-09-15T20:07:18.459Z,80.49
2023-09-15T20:09:46.684Z,80.48
2023-09-15T20:12:16.190Z,80.55
2023-09-15T20:14:44.951Z,81.26
2023-09-15T20:17:13.214Z,80.61
2023-09-15T20:19:42.981Z,80.73
2023-09-15T20:22:12.111Z,79.91
2023-09-15T20:24:40.650Z,79.39
2023-09-15T20:27:09.596Z,79.22
2023-09-15T20:29:39.048Z,79.92
2023-09-15T20:32:07.522Z,80.65
2023-09-15T20:34:35.871Z,80.55
2023-09-15T20:37:04.591Z,80.34
2023-09-15T20:39:32.680Z,79.48
2023-09-15T20:42:01.288Z,79.78
2023-09-15T20:44:29.391Z,79.12
2023-09-15T20:46:59.210Z,79.99
2023-09-15T20:49:29.489Z,80.31
2023-09-15T20:51:58.240Z,80.62
2023-09-15T20:54:27.371Z,79.92
2023-09-15T20:56:55.519Z,79.84
2023-09-15T20:59:23.657Z,80.24
2023-09-15T21:01:52.073Z,81.04
2023-09-15T21:04:22.111Z,81.54
2023-09-15T21:06:50.682Z,81.98
2023-09-15T21:09:19.478Z,82.27
2023-09-15T21:11:48.230Z,82.02
2023-09-15T21:14:16.703Z,81.04
2023-09-15T21:16:44.955Z,80.87
2023-09-15T21:19:13.720Z,80.73
2023-09-15T21:21:43.275Z,80.62
2023-09-15T21:24:11.546Z,81.49
2023-09-15T21:26:39.858Z,81.23
2023-09-15T21:29:08.116Z,80.25
2023-09-15T21:31:36.288Z,80.41
2023-09-15T21:34:04.658Z,80.75
2023-09-15T21:36:32.868Z,80.42
2023-09-15T21:39:02.348Z,81.04
2023-09-15T21:41:30.518Z,81.61
2023-09-15T21:43:58.786Z,81.77
2023-09-15T21:46:26.851Z,82.32
2023-09-15T21:48:55.095Z,81.24
2023-09-15T21:51:23.238Z,80.90
2023-09-15T21:53:51.378Z,80.35
2023-09-15T21:56:20.994Z,80.27
2023-09-15T21:58:50.652Z,80.48
2023-09-15T22:01:18.948Z,81.13
2023-09-15T22:03:48.809Z,81.16
2023-09-15T22:06:17.196Z,82.05
2023-09-15T22:08:45.534Z,82.03
2023-09-15T22:11:13.864Z,82.09
2023-09-15T22:13:44.562Z,81.23
2023-09-15T22:16:12.795Z,80.41
2023-09-15T22:18:41.113Z,80.51
2023-09-15T22:21:10.402Z,80.63
2023-09-15T22:23:38.623Z,81.12
2023-09-15T22:26:06.718Z,80.69
2023-09-15T22:28:35.899Z,79.97
2023-09-15T22:31:05.614Z,80.66
2023-09-15T22:33:34.351Z,81.28
2023-09-15T22:36:07.722Z,80.90
2023-09-15T22:38:37.489Z,80.68
2023-09-15T22:41:16.284Z,81.13
2023-09-15T22:43:46.681Z,81.66
2023-09-15T22:46:17.511Z,81.89
2023-09-15T22:48:47.748Z,81.59
2023-09-15T22:51:16.429Z,81.75
2023-09-15T22:53:44.519Z,81.06
2023-09-15T22:56:12.775Z,80.95
2023-09-15T22:58:40.837Z,81.41
2023-09-15T23:01:09.192Z,81.75
2023-09-15T23:03:38.982Z,82.27
2023-09-15T23:06:07.147Z,81.96
2023-09-15T23:08:35.190Z,82.14
2023-09-15T23:11:05.620Z,82.27
2023-09-15T23:13:33.890Z,82.43
2023-09-15T23:16:28.880Z,81.58
2023-09-15T23:24:03.545Z,81.49
2023-09-15T23:27:01.009Z,80.92
2023-09-15T23:29:54.884Z,82.25
2023-09-15T23:32:23.211Z,81.21
2023-09-15T23:34:51.423Z,81.41
2023-09-15T23:37:20.104Z,82.99
2023-09-15T23:39:49.737Z,82.79
2023-09-15T23:42:17.959Z,83.00
2023-09-15T23:44:46.030Z,83.02
2023-09-15T23:47:15.741Z,81.97
2023-09-15T23:49:44.625Z,82.26
2023-09-15T23:52:12.822Z,82.65
2023-09-15T23:54:41.065Z,81.83
2023-09-15T23:57:10.520Z,82.36
2023-09-15T23:59:38.650Z,82.76
